sensor_id;sensor_type;location;lat;lon;timestamp;P1;durP1;ratioP1;P2;durP2;ratioP2
14933;SDS011;7560;51.364;12.384;2022-07-29T00:04:45;3.38;;;1.40;;
14933;SDS011;7560;51.364;12.384;2022-07-29T00:09:47;3.00;;;1.70;;
14933;SDS011;7560;51.364;12.384;2022-07-29T00:14:53;3.55;;;1.50;;
14933;SDS011;7560;51.364;12.384;2022-07-29T00:19:56;2.33;;;1.45;;
14933;SDS011;7560;51.364;12.384;2022-07-29T00:24:58;5.25;;;1.70;;
14933;SDS011;7560;51.364;12.384;2022-07-29T00:29:59;3.20;;;1.60;;
14933;SDS011;7560;51.364;12.384;2022-07-29T00:35:01;2.53;;;1.80;;
14933;SDS011;7560;51.364;12.384;2022-07-29T00:40:22;2.40;;;1.73;;
14933;SDS011;7560;51.364;12.384;2022-07-29T00:45:24;3.25;;;1.60;;
14933;SDS011;7560;51.364;12.384;2022-07-29T00:50:26;4.22;;;1.83;;
14933;SDS011;7560;51.364;12.384;2022-07-29T00:55:28;3.55;;;1.48;;
14933;SDS011;7560;51.364;12.384;2022-07-29T01:00:30;4.22;;;1.60;;
14933;SDS011;7560;51.364;12.384;2022-07-29T01:05:32;4.45;;;1.50;;
14933;SDS011;7560;51.364;12.384;2022-07-29T01:10:51;2.20;;;1.60;;
14933;SDS011;7560;51.364;12.384;2022-07-29T01:15:56;3.45;;;1.50;;
14933;SDS011;7560;51.364;12.384;2022-07-29T01:31:51;6.32;;;2.15;;
14933;SDS011;7560;51.364;12.384;2022-07-29T01:37:15;4.28;;;1.60;;
14933;SDS011;7560;51.364;12.384;2022-07-29T01:52:58;5.10;;;1.80;;
14933;SDS011;7560;51.364;12.384;2022-07-29T01:58:02;4.10;;;1.73;;
14933;SDS011;7560;51.364;12.384;2022-07-29T02:03:09;5.70;;;1.83;;
14933;SDS011;7560;51.364;12.384;2022-07-29T02:08:12;4.80;;;2.00;;
14933;SDS011;7560;51.364;12.384;2022-07-29T02:13:16;3.38;;;1.75;;
14933;SDS011;7560;51.364;12.384;2022-07-29T02:18:22;6.13;;;2.15;;
14933;SDS011;7560;51.364;12.384;2022-07-29T02:23:26;3.45;;;1.92;;
14933;SDS011;7560;51.364;12.384;2022-07-29T02:28:29;3.75;;;1.95;;
14933;SDS011;7560;51.364;12.384;2022-07-29T02:33:32;4.40;;;2.05;;
14933;SDS011;7560;51.364;12.384;2022-07-29T02:38:34;2.67;;;1.63;;
14933;SDS011;7560;51.364;12.384;2022-07-29T02:43:53;3.65;;;1.90;;
14933;SDS011;7560;51.364;12.384;2022-07-29T02:48:59;5.70;;;2.30;;
14933;SDS011;7560;51.364;12.384;2022-07-29T02:54:44;5.32;;;1.83;;
14933;SDS011;7560;51.364;12.384;2022-07-29T02:59:50;2.45;;;1.80;;
14933;SDS011;7560;51.364;12.384;2022-07-29T03:04:53;4.95;;;1.70;;
14933;SDS011;7560;51.364;12.384;2022-07-29T03:09:58;3.08;;;1.50;;
14933;SDS011;7560;51.364;12.384;2022-07-29T03:15:01;2.83;;;1.70;;
14933;SDS011;7560;51.364;12.384;2022-07-29T03:20:03;4.20;;;2.08;;
14933;SDS011;7560;51.364;12.384;2022-07-29T03:25:11;7.10;;;1.90;;
14933;SDS011;7560;51.364;12.384;2022-07-29T03:30:14;2.60;;;1.45;;
14933;SDS011;7560;51.364;12.384;2022-07-29T03:35:22;3.83;;;1.70;;
14933;SDS011;7560;51.364;12.384;2022-07-29T03:40:26;4.05;;;1.85;;
14933;SDS011;7560;51.364;12.384;2022-07-29T03:45:32;4.00;;;2.05;;
14933;SDS011;7560;51.364;12.384;2022-07-29T03:50:35;6.53;;;3.60;;
14933;SDS011;7560;51.364;12.384;2022-07-29T03:55:40;4.13;;;1.80;;
14933;SDS011;7560;51.364;12.384;2022-07-29T04:00:46;6.10;;;2.00;;
14933;SDS011;7560;51.364;12.384;2022-07-29T04:05:59;3.85;;;2.10;;
14933;SDS011;7560;51.364;12.384;2022-07-29T04:11:01;5.72;;;2.05;;
14933;SDS011;7560;51.364;12.384;2022-07-29T04:16:04;4.20;;;1.75;;
14933;SDS011;7560;51.364;12.384;2022-07-29T04:21:05;5.88;;;2.13;;
14933;SDS011;7560;51.364;12.384;2022-07-29T04:26:07;2.97;;;2.10;;
14933;SDS011;7560;51.364;12.384;2022-07-29T04:31:12;3.65;;;2.20;;
14933;SDS011;7560;51.364;12.384;2022-07-29T04:36:14;5.68;;;2.28;;
14933;SDS011;7560;51.364;12.384;2022-07-29T04:41:29;4.47;;;2.20;;
14933;SDS011;7560;51.364;12.384;2022-07-29T04:46:33;3.30;;;1.98;;
14933;SDS011;7560;51.364;12.384;2022-07-29T04:51:36;5.00;;;2.00;;
14933;SDS011;7560;51.364;12.384;2022-07-29T04:56:38;5.55;;;2.30;;
14933;SDS011;7560;51.364;12.384;2022-07-29T05:01:40;8.05;;;2.22;;
14933;SDS011;7560;51.364;12.384;2022-07-29T05:06:43;6.70;;;2.50;;
14933;SDS011;7560;51.364;12.384;2022-07-29T05:11:44;5.78;;;2.38;;
14933;SDS011;7560;51.364;12.384;2022-07-29T05:16:46;5.72;;;2.28;;
14933;SDS011;7560;51.364;12.384;2022-07-29T05:21:48;3.22;;;2.25;;
14933;SDS011;7560;51.364;12.384;2022-07-29T05:26:51;6.95;;;2.50;;
14933;SDS011;7560;51.364;12.384;2022-07-29T05:31:52;5.03;;;2.45;;
14933;SDS011;7560;51.364;12.384;2022-07-29T05:36:54;4.97;;;2.58;;
14933;SDS011;7560;51.364;12.384;2022-07-29T05:41:56;4.28;;;2.38;;
14933;SDS011;7560;51.364;12.384;2022-07-29T05:46:58;9.35;;;2.55;;
14933;SDS011;7560;51.364;12.384;2022-07-29T05:52:00;10.20;;;2.28;;
14933;SDS011;7560;51.364;12.384;2022-07-29T05:57:02;8.80;;;2.45;;
14933;SDS011;7560;51.364;12.384;2022-07-29T06:02:04;8.05;;;2.75;;
14933;SDS011;7560;51.364;12.384;2022-07-29T06:07:06;9.18;;;3.00;;
14933;SDS011;7560;51.364;12.384;2022-07-29T06:12:08;5.55;;;2.50;;
14933;SDS011;7560;51.364;12.384;2022-07-29T06:17:10;5.07;;;3.08;;
14933;SDS011;7560;51.364;12.384;2022-07-29T06:22:14;8.65;;;2.50;;
14933;SDS011;7560;51.364;12.384;2022-07-29T06:27:17;8.20;;;2.70;;
14933;SDS011;7560;51.364;12.384;2022-07-29T06:32:19;8.90;;;3.13;;
14933;SDS011;7560;51.364;12.384;2022-07-29T06:37:27;6.20;;;3.08;;
14933;SDS011;7560;51.364;12.384;2022-07-29T06:42:32;9.93;;;3.08;;
14933;SDS011;7560;51.364;12.384;2022-07-29T06:47:34;11.15;;;3.28;;
14933;SDS011;7560;51.364;12.384;2022-07-29T06:52:35;7.50;;;3.10;;
14933;SDS011;7560;51.364;12.384;2022-07-29T06:57:38;12.57;;;3.20;;
14933;SDS011;7560;51.364;12.384;2022-07-29T07:02:39;5.38;;;2.90;;
14933;SDS011;7560;51.364;12.384;2022-07-29T07:07:41;5.35;;;2.88;;
14933;SDS011;7560;51.364;12.384;2022-07-29T07:12:43;6.82;;;3.03;;
14933;SDS011;7560;51.364;12.384;2022-07-29T07:17:45;9.02;;;3.20;;
14933;SDS011;7560;51.364;12.384;2022-07-29T07:22:47;5.88;;;3.38;;
14933;SDS011;7560;51.364;12.384;2022-07-29T07:28:21;13.52;;;3.67;;
14933;SDS011;7560;51.364;12.384;2022-07-29T07:33:25;5.20;;;3.35;;
14933;SDS011;7560;51.364;12.384;2022-07-29T07:38:27;7.00;;;3.38;;
14933;SDS011;7560;51.364;12.384;2022-07-29T07:43:28;5.75;;;3.38;;
14933;SDS011;7560;51.364;12.384;2022-07-29T07:48:30;8.48;;;3.97;;
14933;SDS011;7560;51.364;12.384;2022-07-29T07:53:32;7.40;;;5.00;;
14933;SDS011;7560;51.364;12.384;2022-07-29T07:58:34;8.38;;;4.53;;
14933;SDS011;7560;51.364;12.384;2022-07-29T08:03:36;8.25;;;4.25;;
14933;SDS011;7560;51.364;12.384;2022-07-29T08:08:38;8.55;;;4.13;;
14933;SDS011;7560;51.364;12.384;2022-07-29T08:13:40;7.18;;;3.90;;
14933;SDS011;7560;51.364;12.384;2022-07-29T08:18:42;7.10;;;3.78;;
14933;SDS011;7560;51.364;12.384;2022-07-29T08:23:45;8.32;;;3.92;;
14933;SDS011;7560;51.364;12.384;2022-07-29T08:28:59;10.55;;;4.00;;
14933;SDS011;7560;51.364;12.384;2022-07-29T08:34:02;14.70;;;4.55;;
14933;SDS011;7560;51.364;12.384;2022-07-29T08:39:05;10.55;;;4.25;;
14933;SDS011;7560;51.364;12.384;2022-07-29T08:44:07;6.15;;;3.85;;
14933;SDS011;7560;51.364;12.384;2022-07-29T08:49:10;6.55;;;3.47;;
14933;SDS011;7560;51.364;12.384;2022-07-29T08:54:12;14.80;;;4.00;;
14933;SDS011;7560;51.364;12.384;2022-07-29T08:59:19;6.47;;;3.55;;
14933;SDS011;7560;51.364;12.384;2022-07-29T09:04:23;14.13;;;4.30;;
14933;SDS011;7560;51.364;12.384;2022-07-29T09:09:28;7.57;;;3.60;;
14933;SDS011;7560;51.364;12.384;2022-07-29T09:14:30;6.25;;;4.15;;
14933;SDS011;7560;51.364;12.384;2022-07-29T09:19:33;6.20;;;3.90;;
14933;SDS011;7560;51.364;12.384;2022-07-29T09:24:37;9.27;;;4.63;;
14933;SDS011;7560;51.364;12.384;2022-07-29T09:29:48;11.45;;;4.82;;
14933;SDS011;7560;51.364;12.384;2022-07-29T09:35:18;8.77;;;4.55;;
14933;SDS011;7560;51.364;12.384;2022-07-29T09:40:23;8.68;;;4.57;;
14933;SDS011;7560;51.364;12.384;2022-07-29T09:45:33;11.18;;;4.65;;
14933;SDS011;7560;51.364;12.384;2022-07-29T09:50:36;6.95;;;4.20;;
14933;SDS011;7560;51.364;12.384;2022-07-29T09:55:48;6.47;;;4.18;;
14933;SDS011;7560;51.364;12.384;2022-07-29T10:00:52;6.30;;;3.90;;
14933;SDS011;7560;51.364;12.384;2022-07-29T10:11:11;7.40;;;3.85;;
14933;SDS011;7560;51.364;12.384;2022-07-29T10:16:14;8.35;;;3.92;;
14933;SDS011;7560;51.364;12.384;2022-07-29T10:21:17;6.20;;;3.72;;
14933;SDS011;7560;51.364;12.384;2022-07-29T10:26:36;8.27;;;3.40;;
14933;SDS011;7560;51.364;12.384;2022-07-29T10:31:44;7.40;;;3.55;;
14933;SDS011;7560;51.364;12.384;2022-07-29T10:37:16;9.70;;;3.60;;
14933;SDS011;7560;51.364;12.384;2022-07-29T10:42:27;5.65;;;3.00;;
14933;SDS011;7560;51.364;12.384;2022-07-29T10:47:34;7.32;;;2.83;;
14933;SDS011;7560;51.364;12.384;2022-07-29T11:09:14;6.32;;;2.92;;
14933;SDS011;7560;51.364;12.384;2022-07-29T11:25:33;3.28;;;2.97;;
14933;SDS011;7560;51.364;12.384;2022-07-29T11:30:53;7.10;;;2.83;;
14933;SDS011;7560;51.364;12.384;2022-07-29T11:51:49;5.95;;;3.58;;
14933;SDS011;7560;51.364;12.384;2022-07-29T11:56:57;5.72;;;2.90;;
14933;SDS011;7560;51.364;12.384;2022-07-29T12:01:59;5.88;;;3.45;;
14933;SDS011;7560;51.364;12.384;2022-07-29T12:07:27;19.90;;;7.43;;
14933;SDS011;7560;51.364;12.384;2022-07-29T12:12:36;4.85;;;3.22;;
14933;SDS011;7560;51.364;12.384;2022-07-29T12:17:39;8.52;;;3.50;;
14933;SDS011;7560;51.364;12.384;2022-07-29T12:22:41;4.03;;;3.00;;
14933;SDS011;7560;51.364;12.384;2022-07-29T12:27:46;6.13;;;3.80;;
14933;SDS011;7560;51.364;12.384;2022-07-29T12:32:48;6.97;;;3.13;;
14933;SDS011;7560;51.364;12.384;2022-07-29T12:37:50;7.05;;;3.53;;
14933;SDS011;7560;51.364;12.384;2022-07-29T12:43:05;4.32;;;3.65;;
14933;SDS011;7560;51.364;12.384;2022-07-29T12:48:15;4.82;;;3.28;;
14933;SDS011;7560;51.364;12.384;2022-07-29T12:53:19;7.18;;;3.30;;
14933;SDS011;7560;51.364;12.384;2022-07-29T13:03:51;6.70;;;3.17;;
14933;SDS011;7560;51.364;12.384;2022-07-29T13:08:58;4.70;;;3.30;;
14933;SDS011;7560;51.364;12.384;2022-07-29T13:14:02;5.22;;;3.30;;
14933;SDS011;7560;51.364;12.384;2022-07-29T13:19:08;4.72;;;3.50;;
14933;SDS011;7560;51.364;12.384;2022-07-29T13:24:13;8.80;;;3.40;;
14933;SDS011;7560;51.364;12.384;2022-07-29T13:29:20;5.30;;;3.67;;
14933;SDS011;7560;51.364;12.384;2022-07-29T13:34:23;8.52;;;3.70;;
14933;SDS011;7560;51.364;12.384;2022-07-29T13:39:25;7.45;;;3.90;;
14933;SDS011;7560;51.364;12.384;2022-07-29T13:44:27;8.63;;;3.90;;
14933;SDS011;7560;51.364;12.384;2022-07-29T13:49:29;6.03;;;3.50;;
14933;SDS011;7560;51.364;12.384;2022-07-29T13:54:31;4.53;;;3.70;;
14933;SDS011;7560;51.364;12.384;2022-07-29T13:59:33;7.72;;;4.15;;
14933;SDS011;7560;51.364;12.384;2022-07-29T14:04:35;7.45;;;3.83;;
14933;SDS011;7560;51.364;12.384;2022-07-29T14:09:39;6.20;;;4.00;;
14933;SDS011;7560;51.364;12.384;2022-07-29T14:14:42;8.40;;;3.83;;
14933;SDS011;7560;51.364;12.384;2022-07-29T14:19:47;4.85;;;3.42;;
14933;SDS011;7560;51.364;12.384;2022-07-29T14:24:49;4.95;;;3.63;;
14933;SDS011;7560;51.364;12.384;2022-07-29T14:29:51;10.13;;;4.85;;
14933;SDS011;7560;51.364;12.384;2022-07-29T14:34:53;6.38;;;4.20;;
14933;SDS011;7560;51.364;12.384;2022-07-29T14:39:55;6.90;;;4.20;;
14933;SDS011;7560;51.364;12.384;2022-07-29T14:45:00;4.15;;;3.50;;
14933;SDS011;7560;51.364;12.384;2022-07-29T14:50:02;6.60;;;4.13;;
14933;SDS011;7560;51.364;12.384;2022-07-29T14:55:05;7.85;;;3.95;;
14933;SDS011;7560;51.364;12.384;2022-07-29T15:00:20;5.95;;;4.03;;
14933;SDS011;7560;51.364;12.384;2022-07-29T15:05:22;5.75;;;3.88;;
14933;SDS011;7560;51.364;12.384;2022-07-29T15:10:24;4.68;;;3.88;;
14933;SDS011;7560;51.364;12.384;2022-07-29T15:15:28;6.72;;;3.92;;
14933;SDS011;7560;51.364;12.384;2022-07-29T15:20:29;6.22;;;4.00;;
14933;SDS011;7560;51.364;12.384;2022-07-29T15:25:31;5.90;;;3.92;;
14933;SDS011;7560;51.364;12.384;2022-07-29T15:30:37;6.28;;;4.57;;
14933;SDS011;7560;51.364;12.384;2022-07-29T15:35:51;4.80;;;3.80;;
14933;SDS011;7560;51.364;12.384;2022-07-29T15:40:52;7.55;;;4.28;;
14933;SDS011;7560;51.364;12.384;2022-07-29T15:45:54;4.68;;;3.92;;
14933;SDS011;7560;51.364;12.384;2022-07-29T15:51:15;6.35;;;4.55;;
14933;SDS011;7560;51.364;12.384;2022-07-29T15:56:16;8.95;;;4.00;;
14933;SDS011;7560;51.364;12.384;2022-07-29T16:01:18;8.93;;;3.40;;
14933;SDS011;7560;51.364;12.384;2022-07-29T16:06:20;6.68;;;3.55;;
14933;SDS011;7560;51.364;12.384;2022-07-29T16:11:22;8.38;;;3.83;;
14933;SDS011;7560;51.364;12.384;2022-07-29T16:16:24;6.03;;;3.45;;
14933;SDS011;7560;51.364;12.384;2022-07-29T16:21:26;9.07;;;5.55;;
14933;SDS011;7560;51.364;12.384;2022-07-29T16:26:28;4.00;;;3.50;;
14933;SDS011;7560;51.364;12.384;2022-07-29T16:31:30;4.72;;;3.47;;
14933;SDS011;7560;51.364;12.384;2022-07-29T16:36:32;4.20;;;3.58;;
14933;SDS011;7560;51.364;12.384;2022-07-29T16:41:33;4.85;;;4.00;;
14933;SDS011;7560;51.364;12.384;2022-07-29T16:46:35;5.45;;;3.90;;
14933;SDS011;7560;51.364;12.384;2022-07-29T16:51:41;6.13;;;4.10;;
14933;SDS011;7560;51.364;12.384;2022-07-29T16:56:43;5.05;;;3.80;;
14933;SDS011;7560;51.364;12.384;2022-07-29T17:01:45;6.63;;;3.80;;
14933;SDS011;7560;51.364;12.384;2022-07-29T17:06:47;5.60;;;3.65;;
14933;SDS011;7560;51.364;12.384;2022-07-29T17:11:49;4.60;;;3.05;;
14933;SDS011;7560;51.364;12.384;2022-07-29T17:16:56;3.50;;;3.20;;
14933;SDS011;7560;51.364;12.384;2022-07-29T17:22:03;2.95;;;2.75;;
14933;SDS011;7560;51.364;12.384;2022-07-29T17:27:18;4.68;;;3.58;;
14933;SDS011;7560;51.364;12.384;2022-07-29T17:32:20;4.50;;;3.58;;
14933;SDS011;7560;51.364;12.384;2022-07-29T17:37:22;5.32;;;3.28;;
14933;SDS011;7560;51.364;12.384;2022-07-29T17:42:24;3.92;;;3.50;;
14933;SDS011;7560;51.364;12.384;2022-07-29T17:47:25;4.95;;;4.03;;
14933;SDS011;7560;51.364;12.384;2022-07-29T17:52:27;3.97;;;3.40;;
14933;SDS011;7560;51.364;12.384;2022-07-29T17:57:29;6.65;;;3.88;;
14933;SDS011;7560;51.364;12.384;2022-07-29T18:02:31;6.10;;;4.45;;
14933;SDS011;7560;51.364;12.384;2022-07-29T18:07:33;7.25;;;4.35;;
14933;SDS011;7560;51.364;12.384;2022-07-29T18:12:35;4.10;;;3.70;;
14933;SDS011;7560;51.364;12.384;2022-07-29T18:17:37;4.85;;;3.92;;
14933;SDS011;7560;51.364;12.384;2022-07-29T18:22:57;4.93;;;3.75;;
14933;SDS011;7560;51.364;12.384;2022-07-29T18:27:59;5.38;;;4.15;;
14933;SDS011;7560;51.364;12.384;2022-07-29T18:33:01;4.50;;;3.47;;
14933;SDS011;7560;51.364;12.384;2022-07-29T18:38:22;5.57;;;3.80;;
14933;SDS011;7560;51.364;12.384;2022-07-29T18:43:23;4.93;;;3.65;;
14933;SDS011;7560;51.364;12.384;2022-07-29T18:48:25;6.68;;;3.70;;
14933;SDS011;7560;51.364;12.384;2022-07-29T18:53:27;4.55;;;3.92;;
14933;SDS011;7560;51.364;12.384;2022-07-29T18:58:29;4.18;;;3.75;;
14933;SDS011;7560;51.364;12.384;2022-07-29T19:03:33;5.03;;;3.72;;
14933;SDS011;7560;51.364;12.384;2022-07-29T19:08:35;13.43;;;4.57;;
14933;SDS011;7560;51.364;12.384;2022-07-29T19:13:36;9.40;;;4.40;;
14933;SDS011;7560;51.364;12.384;2022-07-29T19:18:39;4.90;;;4.45;;
14933;SDS011;7560;51.364;12.384;2022-07-29T19:23:41;4.80;;;4.40;;
14933;SDS011;7560;51.364;12.384;2022-07-29T19:29:03;6.28;;;4.60;;
14933;SDS011;7560;51.364;12.384;2022-07-29T19:34:05;7.90;;;5.32;;
14933;SDS011;7560;51.364;12.384;2022-07-29T19:39:07;7.03;;;5.30;;
14933;SDS011;7560;51.364;12.384;2022-07-29T19:44:09;5.95;;;5.22;;
14933;SDS011;7560;51.364;12.384;2022-07-29T19:49:11;7.07;;;5.50;;
14933;SDS011;7560;51.364;12.384;2022-07-29T19:54:13;5.68;;;5.05;;
14933;SDS011;7560;51.364;12.384;2022-07-29T19:59:18;7.30;;;4.93;;
14933;SDS011;7560;51.364;12.384;2022-07-29T20:04:24;7.07;;;4.70;;
14933;SDS011;7560;51.364;12.384;2022-07-29T20:09:26;4.70;;;4.28;;
14933;SDS011;7560;51.364;12.384;2022-07-29T20:14:28;6.13;;;4.90;;
14933;SDS011;7560;51.364;12.384;2022-07-29T20:19:30;6.72;;;5.15;;
14933;SDS011;7560;51.364;12.384;2022-07-29T20:24:33;6.22;;;4.97;;
14933;SDS011;7560;51.364;12.384;2022-07-29T20:29:35;5.65;;;5.10;;
14933;SDS011;7560;51.364;12.384;2022-07-29T20:34:38;5.95;;;4.65;;
14933;SDS011;7560;51.364;12.384;2022-07-29T20:39:41;7.13;;;5.07;;
14933;SDS011;7560;51.364;12.384;2022-07-29T20:44:43;7.88;;;5.38;;
14933;SDS011;7560;51.364;12.384;2022-07-29T20:49:46;5.68;;;5.03;;
14933;SDS011;7560;51.364;12.384;2022-07-29T20:54:48;6.03;;;5.20;;
14933;SDS011;7560;51.364;12.384;2022-07-29T20:59:50;6.75;;;4.90;;
14933;SDS011;7560;51.364;12.384;2022-07-29T21:04:52;6.20;;;5.60;;
14933;SDS011;7560;51.364;12.384;2022-07-29T21:09:54;8.05;;;6.03;;
14933;SDS011;7560;51.364;12.384;2022-07-29T21:14:56;10.68;;;4.35;;
14933;SDS011;7560;51.364;12.384;2022-07-29T21:19:58;5.40;;;4.53;;
14933;SDS011;7560;51.364;12.384;2022-07-29T21:24:59;9.00;;;4.72;;
14933;SDS011;7560;51.364;12.384;2022-07-29T21:30:02;7.25;;;5.38;;
14933;SDS011;7560;51.364;12.384;2022-07-29T21:35:04;8.32;;;5.60;;
14933;SDS011;7560;51.364;12.384;2022-07-29T21:40:22;13.52;;;6.78;;
14933;SDS011;7560;51.364;12.384;2022-07-29T21:45:24;15.07;;;7.03;;
14933;SDS011;7560;51.364;12.384;2022-07-29T21:50:25;14.40;;;8.13;;
14933;SDS011;7560;51.364;12.384;2022-07-29T21:55:27;7.25;;;5.97;;
14933;SDS011;7560;51.364;12.384;2022-07-29T22:00:32;10.15;;;6.95;;
14933;SDS011;7560;51.364;12.384;2022-07-29T22:05:34;8.57;;;6.47;;
14933;SDS011;7560;51.364;12.384;2022-07-29T22:10:36;8.20;;;6.43;;
14933;SDS011;7560;51.364;12.384;2022-07-29T22:15:38;8.05;;;6.57;;
14933;SDS011;7560;51.364;12.384;2022-07-29T22:20:47;11.90;;;6.70;;
14933;SDS011;7560;51.364;12.384;2022-07-29T22:25:49;8.15;;;6.47;;
14933;SDS011;7560;51.364;12.384;2022-07-29T22:30:51;8.57;;;6.00;;
14933;SDS011;7560;51.364;12.384;2022-07-29T22:35:53;7.38;;;5.90;;
14933;SDS011;7560;51.364;12.384;2022-07-29T22:40:55;8.55;;;6.63;;
14933;SDS011;7560;51.364;12.384;2022-07-29T22:46:01;7.28;;;6.10;;
14933;SDS011;7560;51.364;12.384;2022-07-29T22:51:03;8.18;;;6.40;;
14933;SDS011;7560;51.364;12.384;2022-07-29T22:56:05;9.05;;;6.03;;
14933;SDS011;7560;51.364;12.384;2022-07-29T23:01:07;8.00;;;6.05;;
14933;SDS011;7560;51.364;12.384;2022-07-29T23:06:09;7.57;;;6.28;;
14933;SDS011;7560;51.364;12.384;2022-07-29T23:11:11;8.63;;;6.20;;
14933;SDS011;7560;51.364;12.384;2022-07-29T23:16:13;8.35;;;5.63;;
14933;SDS011;7560;51.364;12.384;2022-07-29T23:21:26;6.63;;;5.43;;
14933;SDS011;7560;51.364;12.384;2022-07-29T23:26:28;6.22;;;5.30;;
14933;SDS011;7560;51.364;12.384;2022-07-29T23:31:31;6.03;;;5.43;;
14933;SDS011;7560;51.364;12.384;2022-07-29T23:36:42;8.40;;;5.35;;
14933;SDS011;7560;51.364;12.384;2022-07-29T23:41:43;6.30;;;5.32;;
14933;SDS011;7560;51.364;12.384;2022-07-29T23:46:45;6.53;;;5.45;;
14933;SDS011;7560;51.364;12.384;2022-07-29T23:51:47;6.45;;;5.65;;
14933;SDS011;7560;51.364;12.384;2022-07-29T23:56:48;6.82;;;5.75;;
